Overview Statistics Trail Chart Weather Telemetry Raw packets
 

This is the latest recevied weather packets stored in our database for station/object KD8DNO-13. If no packets are shown the sender has not sent any weather packets the latest 10 day(s).

<< 82 83 84 85 86 87 88 >>
Time Temp. Humidity Pressure Rain* Wind** Luminosity Snow
1787960283 23.89° C 71% 1021.3 hPa 0 mm - - -
1787959983 24.44° C 70% 1021.3 hPa 0 mm - - -
1787959683 24.44° C 70% 1021.3 hPa 0 mm - - -
1787959383 25° C 67% 1021.3 hPa 0 mm - - -
1787959083 25° C 66% 1021.3 hPa 0 mm - - -
1787958783 25.56° C 66% 1021.3 hPa 0 mm - - -
1787958483 25° C 67% 1021.3 hPa 0 mm - - -
1787958184 24.44° C 68% 1021.3 hPa 0 mm - - -
1787957883 24.44° C 68% 1021.3 hPa 0 mm - - -
1787957583 23.89° C 71% 1021.3 hPa 0 mm - - -
1787957283 24.44° C 67% 1021.3 hPa 0 mm - - -
1787956983 25° C 65% 1021.3 hPa 0 mm - - -
1787956683 24.44° C 69% 1021.3 hPa 0 mm - - -
1787956383 25.56° C 63% 1021.3 hPa 0 mm - - -
1787956083 25° C 64% 1021.3 hPa 0 mm - - -
1787955783 25.56° C 65% 1021.3 hPa 0 mm - - -
1787955491 25° C 65% 1021.3 hPa 0 mm - - -
1787955183 25.56° C 64% 1021.3 hPa 0 mm - - -
1787954883 25.56° C 64% 1021.3 hPa 0 mm - - -
1787954583 26.67° C 61% 1021.3 hPa 0 mm - - -
1787954283 26.11° C 64% 1021.3 hPa 0 mm - - -
1787953983 26.11° C 63% 1021.3 hPa 0 mm - - -
1787953683 26.11° C 61% 1021.3 hPa 0 mm - - -
1787953383 25.56° C 62% 1021.3 hPa 0 mm - - -
1787953083 26.11° C 62% 1021.3 hPa 0 mm - - -

* Rain latest hour (hover to see other rain measurements)
** Current wind speed in m/s (hover to see current wind gust speed)